sensor_id;sensor_type;location;lat;lon;timestamp;P1;durP1;ratioP1;P2;durP2;ratioP2
21107;SDS011;10712;52.944;9.098;2023-04-06T00:02:15;7.38;;;5.78;;
21107;SDS011;10712;52.944;9.098;2023-04-06T00:04:41;7.70;;;5.57;;
21107;SDS011;10712;52.944;9.098;2023-04-06T00:07:07;6.85;;;5.88;;
21107;SDS011;10712;52.944;9.098;2023-04-06T00:09:33;8.50;;;5.70;;
21107;SDS011;10712;52.944;9.098;2023-04-06T00:11:59;9.93;;;6.10;;
21107;SDS011;10712;52.944;9.098;2023-04-06T00:14:25;6.55;;;5.13;;
21107;SDS011;10712;52.944;9.098;2023-04-06T00:16:51;10.07;;;6.43;;
21107;SDS011;10712;52.944;9.098;2023-04-06T00:19:16;10.63;;;6.78;;
21107;SDS011;10712;52.944;9.098;2023-04-06T00:21:43;8.50;;;6.10;;
21107;SDS011;10712;52.944;9.098;2023-04-06T00:24:09;7.20;;;6.07;;
21107;SDS011;10712;52.944;9.098;2023-04-06T00:26:35;9.82;;;6.65;;
21107;SDS011;10712;52.944;9.098;2023-04-06T00:29:01;6.40;;;5.72;;
21107;SDS011;10712;52.944;9.098;2023-04-06T00:31:28;8.05;;;5.95;;
21107;SDS011;10712;52.944;9.098;2023-04-06T00:33:53;7.78;;;5.28;;
21107;SDS011;10712;52.944;9.098;2023-04-06T00:36:19;7.00;;;5.63;;
21107;SDS011;10712;52.944;9.098;2023-04-06T00:38:45;6.97;;;5.38;;
21107;SDS011;10712;52.944;9.098;2023-04-06T00:41:11;7.68;;;6.32;;
21107;SDS011;10712;52.944;9.098;2023-04-06T00:43:37;9.90;;;5.65;;
21107;SDS011;10712;52.944;9.098;2023-04-06T00:46:03;8.95;;;7.28;;
21107;SDS011;10712;52.944;9.098;2023-04-06T00:48:29;13.18;;;7.93;;
21107;SDS011;10712;52.944;9.098;2023-04-06T00:50:57;10.82;;;7.43;;
21107;SDS011;10712;52.944;9.098;2023-04-06T00:53:23;11.77;;;7.72;;
21107;SDS011;10712;52.944;9.098;2023-04-06T00:55:51;8.85;;;6.78;;
21107;SDS011;10712;52.944;9.098;2023-04-06T00:58:16;9.98;;;6.93;;
21107;SDS011;10712;52.944;9.098;2023-04-06T01:00:48;8.90;;;6.75;;
21107;SDS011;10712;52.944;9.098;2023-04-06T01:03:17;9.95;;;7.05;;
21107;SDS011;10712;52.944;9.098;2023-04-06T01:05:43;8.82;;;7.00;;
21107;SDS011;10712;52.944;9.098;2023-04-06T01:08:19;7.80;;;5.80;;
21107;SDS011;10712;52.944;9.098;2023-04-06T01:10:46;7.15;;;5.32;;
21107;SDS011;10712;52.944;9.098;2023-04-06T01:13:22;5.60;;;4.82;;
21107;SDS011;10712;52.944;9.098;2023-04-06T01:15:52;5.35;;;4.68;;
21107;SDS011;10712;52.944;9.098;2023-04-06T01:18:37;5.93;;;4.55;;
21107;SDS011;10712;52.944;9.098;2023-04-06T01:21:15;7.07;;;5.15;;
21107;SDS011;10712;52.944;9.098;2023-04-06T01:23:52;7.00;;;5.82;;
21107;SDS011;10712;52.944;9.098;2023-04-06T01:26:25;5.63;;;5.00;;
21107;SDS011;10712;52.944;9.098;2023-04-06T01:28:52;6.15;;;5.07;;
21107;SDS011;10712;52.944;9.098;2023-04-06T01:31:24;7.93;;;5.40;;
21107;SDS011;10712;52.944;9.098;2023-04-06T01:33:51;6.85;;;5.53;;
21107;SDS011;10712;52.944;9.098;2023-04-06T01:36:21;7.22;;;5.32;;
21107;SDS011;10712;52.944;9.098;2023-04-06T01:38:54;5.97;;;4.88;;
21107;SDS011;10712;52.944;9.098;2023-04-06T01:41:28;6.25;;;5.18;;
21107;SDS011;10712;52.944;9.098;2023-04-06T01:43:54;6.53;;;4.90;;
21107;SDS011;10712;52.944;9.098;2023-04-06T01:46:23;5.55;;;4.50;;
21107;SDS011;10712;52.944;9.098;2023-04-06T01:48:49;6.10;;;4.50;;
21107;SDS011;10712;52.944;9.098;2023-04-06T01:51:34;6.60;;;5.50;;
21107;SDS011;10712;52.944;9.098;2023-04-06T01:54:02;7.53;;;5.63;;
21107;SDS011;10712;52.944;9.098;2023-04-06T01:57:07;9.40;;;5.32;;
21107;SDS011;10712;52.944;9.098;2023-04-06T01:59:40;8.05;;;5.07;;
21107;SDS011;10712;52.944;9.098;2023-04-06T02:02:13;6.57;;;5.15;;
21107;SDS011;10712;52.944;9.098;2023-04-06T02:04:49;10.60;;;5.78;;
21107;SDS011;10712;52.944;9.098;2023-04-06T02:07:15;7.22;;;5.75;;
21107;SDS011;10712;52.944;9.098;2023-04-06T02:09:41;6.38;;;5.50;;
21107;SDS011;10712;52.944;9.098;2023-04-06T02:12:13;7.05;;;4.85;;
21107;SDS011;10712;52.944;9.098;2023-04-06T02:14:39;5.63;;;4.97;;
21107;SDS011;10712;52.944;9.098;2023-04-06T02:17:05;8.00;;;5.40;;
21107;SDS011;10712;52.944;9.098;2023-04-06T02:19:31;6.82;;;5.25;;
21107;SDS011;10712;52.944;9.098;2023-04-06T02:21:57;6.30;;;5.13;;
21107;SDS011;10712;52.944;9.098;2023-04-06T02:24:23;5.57;;;4.57;;
21107;SDS011;10712;52.944;9.098;2023-04-06T02:26:48;7.68;;;4.43;;
21107;SDS011;10712;52.944;9.098;2023-04-06T02:29:14;6.53;;;4.28;;
21107;SDS011;10712;52.944;9.098;2023-04-06T02:31:41;5.45;;;4.28;;
21107;SDS011;10712;52.944;9.098;2023-04-06T02:34:08;5.68;;;4.22;;
21107;SDS011;10712;52.944;9.098;2023-04-06T02:36:37;5.82;;;4.30;;
21107;SDS011;10712;52.944;9.098;2023-04-06T02:39:02;10.52;;;5.18;;
21107;SDS011;10712;52.944;9.098;2023-04-06T02:41:28;8.32;;;5.18;;
21107;SDS011;10712;52.944;9.098;2023-04-06T02:43:56;5.25;;;4.75;;
21107;SDS011;10712;52.944;9.098;2023-04-06T02:46:33;7.07;;;5.80;;
21107;SDS011;10712;52.944;9.098;2023-04-06T02:49:02;8.90;;;5.80;;
21107;SDS011;10712;52.944;9.098;2023-04-06T02:51:30;8.95;;;6.82;;
21107;SDS011;10712;52.944;9.098;2023-04-06T02:54:06;9.77;;;8.57;;
21107;SDS011;10712;52.944;9.098;2023-04-06T02:56:31;11.93;;;7.40;;
21107;SDS011;10712;52.944;9.098;2023-04-06T02:58:57;11.73;;;8.27;;
21107;SDS011;10712;52.944;9.098;2023-04-06T03:01:27;10.85;;;7.80;;
21107;SDS011;10712;52.944;9.098;2023-04-06T03:03:57;10.35;;;8.20;;
21107;SDS011;10712;52.944;9.098;2023-04-06T03:06:25;9.65;;;7.47;;
21107;SDS011;10712;52.944;9.098;2023-04-06T03:08:56;9.07;;;8.10;;
21107;SDS011;10712;52.944;9.098;2023-04-06T03:11:22;9.80;;;8.30;;
21107;SDS011;10712;52.944;9.098;2023-04-06T03:13:50;12.30;;;9.52;;
21107;SDS011;10712;52.944;9.098;2023-04-06T03:16:16;9.27;;;8.32;;
21107;SDS011;10712;52.944;9.098;2023-04-06T03:18:42;12.38;;;8.25;;
21107;SDS011;10712;52.944;9.098;2023-04-06T03:21:11;11.82;;;8.23;;
21107;SDS011;10712;52.944;9.098;2023-04-06T03:23:45;11.90;;;8.57;;
21107;SDS011;10712;52.944;9.098;2023-04-06T03:26:11;12.05;;;9.35;;
21107;SDS011;10712;52.944;9.098;2023-04-06T03:28:37;10.38;;;8.85;;
21107;SDS011;10712;52.944;9.098;2023-04-06T03:31:04;11.45;;;9.70;;
21107;SDS011;10712;52.944;9.098;2023-04-06T03:33:56;15.02;;;9.98;;
21107;SDS011;10712;52.944;9.098;2023-04-06T03:36:31;12.20;;;9.43;;
21107;SDS011;10712;52.944;9.098;2023-04-06T03:38:58;11.73;;;9.30;;
21107;SDS011;10712;52.944;9.098;2023-04-06T03:41:24;12.98;;;10.00;;
21107;SDS011;10712;52.944;9.098;2023-04-06T03:43:57;10.57;;;9.55;;
21107;SDS011;10712;52.944;9.098;2023-04-06T03:46:23;10.10;;;9.05;;
21107;SDS011;10712;52.944;9.098;2023-04-06T03:48:51;9.27;;;8.32;;
21107;SDS011;10712;52.944;9.098;2023-04-06T03:51:20;11.63;;;9.68;;
21107;SDS011;10712;52.944;9.098;2023-04-06T03:53:46;10.85;;;9.52;;
21107;SDS011;10712;52.944;9.098;2023-04-06T03:56:12;9.48;;;8.48;;
21107;SDS011;10712;52.944;9.098;2023-04-06T03:58:38;11.82;;;9.52;;
21107;SDS011;10712;52.944;9.098;2023-04-06T04:01:04;9.60;;;7.90;;
21107;SDS011;10712;52.944;9.098;2023-04-06T04:03:30;8.38;;;7.28;;
21107;SDS011;10712;52.944;9.098;2023-04-06T04:05:56;9.80;;;8.18;;
21107;SDS011;10712;52.944;9.098;2023-04-06T04:08:24;9.48;;;7.63;;
21107;SDS011;10712;52.944;9.098;2023-04-06T04:10:50;10.52;;;9.02;;
21107;SDS011;10712;52.944;9.098;2023-04-06T04:13:15;9.55;;;8.35;;
21107;SDS011;10712;52.944;9.098;2023-04-06T04:15:45;9.68;;;8.63;;
21107;SDS011;10712;52.944;9.098;2023-04-06T04:18:12;9.45;;;8.45;;
21107;SDS011;10712;52.944;9.098;2023-04-06T04:20:39;10.75;;;8.63;;
21107;SDS011;10712;52.944;9.098;2023-04-06T04:23:05;10.88;;;9.25;;
21107;SDS011;10712;52.944;9.098;2023-04-06T04:25:32;9.35;;;8.13;;
21107;SDS011;10712;52.944;9.098;2023-04-06T04:27:58;10.38;;;9.25;;
21107;SDS011;10712;52.944;9.098;2023-04-06T04:30:24;15.70;;;10.55;;
21107;SDS011;10712;52.944;9.098;2023-04-06T04:32:50;15.10;;;11.00;;
21107;SDS011;10712;52.944;9.098;2023-04-06T04:35:19;10.68;;;9.27;;
21107;SDS011;10712;52.944;9.098;2023-04-06T04:37:45;9.73;;;8.57;;
21107;SDS011;10712;52.944;9.098;2023-04-06T04:40:11;13.57;;;9.45;;
21107;SDS011;10712;52.944;9.098;2023-04-06T04:42:48;11.73;;;8.20;;
21107;SDS011;10712;52.944;9.098;2023-04-06T04:45:23;12.27;;;9.63;;
21107;SDS011;10712;52.944;9.098;2023-04-06T04:47:49;13.43;;;9.85;;
21107;SDS011;10712;52.944;9.098;2023-04-06T04:50:17;12.80;;;9.90;;
21107;SDS011;10712;52.944;9.098;2023-04-06T04:52:44;12.00;;;10.60;;
21107;SDS011;10712;52.944;9.098;2023-04-06T04:55:18;14.43;;;10.50;;
21107;SDS011;10712;52.944;9.098;2023-04-06T04:57:47;11.02;;;9.40;;
21107;SDS011;10712;52.944;9.098;2023-04-06T05:00:14;10.88;;;9.07;;
21107;SDS011;10712;52.944;9.098;2023-04-06T05:02:42;12.07;;;10.25;;
21107;SDS011;10712;52.944;9.098;2023-04-06T05:05:15;12.73;;;9.48;;
21107;SDS011;10712;52.944;9.098;2023-04-06T05:07:42;13.98;;;9.25;;
21107;SDS011;10712;52.944;9.098;2023-04-06T05:10:13;11.43;;;9.63;;
21107;SDS011;10712;52.944;9.098;2023-04-06T05:12:49;9.75;;;8.55;;
21107;SDS011;10712;52.944;9.098;2023-04-06T05:15:15;10.85;;;9.48;;
21107;SDS011;10712;52.944;9.098;2023-04-06T05:17:41;12.35;;;10.43;;
21107;SDS011;10712;52.944;9.098;2023-04-06T05:20:10;11.65;;;9.57;;
21107;SDS011;10712;52.944;9.098;2023-04-06T05:22:43;10.63;;;9.18;;
21107;SDS011;10712;52.944;9.098;2023-04-06T05:25:10;11.38;;;9.20;;
21107;SDS011;10712;52.944;9.098;2023-04-06T05:27:37;10.60;;;8.47;;
21107;SDS011;10712;52.944;9.098;2023-04-06T05:30:08;11.63;;;9.75;;
21107;SDS011;10712;52.944;9.098;2023-04-06T05:32:40;10.15;;;7.90;;
21107;SDS011;10712;52.944;9.098;2023-04-06T05:35:07;14.20;;;8.48;;
21107;SDS011;10712;52.944;9.098;2023-04-06T05:37:34;11.77;;;9.15;;
21107;SDS011;10712;52.944;9.098;2023-04-06T05:40:00;10.07;;;8.52;;
21107;SDS011;10712;52.944;9.098;2023-04-06T05:42:26;10.48;;;8.32;;
21107;SDS011;10712;52.944;9.098;2023-04-06T05:44:55;13.50;;;9.82;;
21107;SDS011;10712;52.944;9.098;2023-04-06T05:47:21;11.38;;;9.27;;
21107;SDS011;10712;52.944;9.098;2023-04-06T05:49:54;11.10;;;9.20;;
21107;SDS011;10712;52.944;9.098;2023-04-06T05:52:29;10.48;;;8.45;;
21107;SDS011;10712;52.944;9.098;2023-04-06T05:54:55;12.68;;;8.02;;
21107;SDS011;10712;52.944;9.098;2023-04-06T05:57:23;10.48;;;8.43;;
21107;SDS011;10712;52.944;9.098;2023-04-06T05:59:49;11.25;;;8.23;;
21107;SDS011;10712;52.944;9.098;2023-04-06T06:02:15;11.88;;;8.85;;
21107;SDS011;10712;52.944;9.098;2023-04-06T06:04:45;16.40;;;10.48;;
21107;SDS011;10712;52.944;9.098;2023-04-06T06:07:11;14.38;;;10.85;;
21107;SDS011;10712;52.944;9.098;2023-04-06T06:09:43;12.88;;;10.27;;
21107;SDS011;10712;52.944;9.098;2023-04-06T06:12:18;15.05;;;10.30;;
21107;SDS011;10712;52.944;9.098;2023-04-06T06:14:46;11.98;;;9.30;;
21107;SDS011;10712;52.944;9.098;2023-04-06T06:17:12;11.05;;;9.90;;
21107;SDS011;10712;52.944;9.098;2023-04-06T06:19:41;9.98;;;8.50;;
21107;SDS011;10712;52.944;9.098;2023-04-06T06:22:07;11.38;;;8.68;;
21107;SDS011;10712;52.944;9.098;2023-04-06T06:24:36;10.75;;;9.55;;
21107;SDS011;10712;52.944;9.098;2023-04-06T06:27:02;11.52;;;9.57;;
21107;SDS011;10712;52.944;9.098;2023-04-06T06:29:31;12.48;;;8.82;;
21107;SDS011;10712;52.944;9.098;2023-04-06T06:31:58;15.52;;;9.50;;
21107;SDS011;10712;52.944;9.098;2023-04-06T06:34:24;11.82;;;9.65;;
21107;SDS011;10712;52.944;9.098;2023-04-06T06:36:51;10.15;;;8.90;;
21107;SDS011;10712;52.944;9.098;2023-04-06T06:39:19;13.32;;;9.43;;
21107;SDS011;10712;52.944;9.098;2023-04-06T06:41:47;13.50;;;9.48;;
21107;SDS011;10712;52.944;9.098;2023-04-06T06:44:13;12.23;;;10.18;;
21107;SDS011;10712;52.944;9.098;2023-04-06T06:46:39;14.48;;;11.63;;
21107;SDS011;10712;52.944;9.098;2023-04-06T06:49:05;10.07;;;8.60;;
21107;SDS011;10712;52.944;9.098;2023-04-06T06:51:31;10.20;;;8.60;;
21107;SDS011;10712;52.944;9.098;2023-04-06T06:53:57;11.52;;;8.75;;
21107;SDS011;10712;52.944;9.098;2023-04-06T06:56:23;12.43;;;9.32;;
21107;SDS011;10712;52.944;9.098;2023-04-06T06:58:50;11.48;;;8.88;;
21107;SDS011;10712;52.944;9.098;2023-04-06T07:01:16;13.55;;;8.93;;
21107;SDS011;10712;52.944;9.098;2023-04-06T07:03:42;9.15;;;8.10;;
21107;SDS011;10712;52.944;9.098;2023-04-06T07:06:08;11.93;;;9.18;;
21107;SDS011;10712;52.944;9.098;2023-04-06T07:08:34;9.68;;;8.60;;
21107;SDS011;10712;52.944;9.098;2023-04-06T07:11:01;10.50;;;8.13;;
21107;SDS011;10712;52.944;9.098;2023-04-06T07:13:28;13.40;;;8.93;;
21107;SDS011;10712;52.944;9.098;2023-04-06T07:15:56;15.98;;;10.95;;
21107;SDS011;10712;52.944;9.098;2023-04-06T07:18:22;11.27;;;9.18;;
21107;SDS011;10712;52.944;9.098;2023-04-06T07:20:49;11.10;;;9.13;;
21107;SDS011;10712;52.944;9.098;2023-04-06T07:23:15;10.13;;;8.63;;
21107;SDS011;10712;52.944;9.098;2023-04-06T07:25:41;11.05;;;9.18;;
21107;SDS011;10712;52.944;9.098;2023-04-06T07:28:08;11.27;;;8.80;;
21107;SDS011;10712;52.944;9.098;2023-04-06T07:30:34;12.27;;;8.95;;
21107;SDS011;10712;52.944;9.098;2023-04-06T07:33:03;10.23;;;8.32;;
21107;SDS011;10712;52.944;9.098;2023-04-06T07:35:31;10.13;;;8.88;;
21107;SDS011;10712;52.944;9.098;2023-04-06T07:37:57;10.43;;;8.57;;
21107;SDS011;10712;52.944;9.098;2023-04-06T07:40:23;8.77;;;7.88;;
21107;SDS011;10712;52.944;9.098;2023-04-06T07:42:50;21.45;;;10.40;;
21107;SDS011;10712;52.944;9.098;2023-04-06T07:45:15;21.33;;;15.05;;
21107;SDS011;10712;52.944;9.098;2023-04-06T07:47:42;12.27;;;9.30;;
21107;SDS011;10712;52.944;9.098;2023-04-06T07:50:08;13.32;;;9.10;;
21107;SDS011;10712;52.944;9.098;2023-04-06T07:52:36;12.10;;;9.13;;
21107;SDS011;10712;52.944;9.098;2023-04-06T07:55:02;10.50;;;8.57;;
21107;SDS011;10712;52.944;9.098;2023-04-06T07:57:28;11.80;;;8.70;;
21107;SDS011;10712;52.944;9.098;2023-04-06T07:59:54;10.07;;;8.85;;
21107;SDS011;10712;52.944;9.098;2023-04-06T08:02:19;9.85;;;8.65;;
21107;SDS011;10712;52.944;9.098;2023-04-06T08:04:45;10.23;;;8.02;;
21107;SDS011;10712;52.944;9.098;2023-04-06T08:07:11;10.88;;;8.52;;
21107;SDS011;10712;52.944;9.098;2023-04-06T08:09:37;11.88;;;8.80;;
21107;SDS011;10712;52.944;9.098;2023-04-06T08:12:03;9.98;;;8.80;;
21107;SDS011;10712;52.944;9.098;2023-04-06T08:14:29;14.63;;;9.32;;
21107;SDS011;10712;52.944;9.098;2023-04-06T08:16:55;11.85;;;8.52;;
21107;SDS011;10712;52.944;9.098;2023-04-06T08:19:20;10.82;;;8.48;;
21107;SDS011;10712;52.944;9.098;2023-04-06T08:21:46;10.27;;;7.93;;
21107;SDS011;10712;52.944;9.098;2023-04-06T08:24:13;14.10;;;8.45;;
21107;SDS011;10712;52.944;9.098;2023-04-06T08:26:40;9.43;;;8.43;;
21107;SDS011;10712;52.944;9.098;2023-04-06T08:29:06;9.90;;;8.43;;
21107;SDS011;10712;52.944;9.098;2023-04-06T08:31:35;11.13;;;8.57;;
21107;SDS011;10712;52.944;9.098;2023-04-06T08:34:01;11.85;;;8.48;;
21107;SDS011;10712;52.944;9.098;2023-04-06T08:36:30;9.30;;;7.90;;
21107;SDS011;10712;52.944;9.098;2023-04-06T08:38:56;9.65;;;7.82;;
21107;SDS011;10712;52.944;9.098;2023-04-06T08:41:22;9.18;;;8.23;;
21107;SDS011;10712;52.944;9.098;2023-04-06T08:43:48;10.70;;;9.07;;
21107;SDS011;10712;52.944;9.098;2023-04-06T08:46:22;12.55;;;7.57;;
21107;SDS011;10712;52.944;9.098;2023-04-06T08:48:58;9.43;;;8.38;;
21107;SDS011;10712;52.944;9.098;2023-04-06T08:51:27;12.73;;;8.25;;
21107;SDS011;10712;52.944;9.098;2023-04-06T08:53:56;10.18;;;8.18;;
21107;SDS011;10712;52.944;9.098;2023-04-06T08:56:25;11.88;;;8.38;;
21107;SDS011;10712;52.944;9.098;2023-04-06T08:58:53;11.00;;;8.32;;
21107;SDS011;10712;52.944;9.098;2023-04-06T09:01:21;11.48;;;7.85;;
21107;SDS011;10712;52.944;9.098;2023-04-06T09:03:55;13.80;;;8.60;;
21107;SDS011;10712;52.944;9.098;2023-04-06T09:06:24;10.05;;;7.80;;
21107;SDS011;10712;52.944;9.098;2023-04-06T09:08:55;11.77;;;8.10;;
21107;SDS011;10712;52.944;9.098;2023-04-06T09:11:23;10.45;;;8.20;;
21107;SDS011;10712;52.944;9.098;2023-04-06T09:16:16;11.02;;;7.78;;
21107;SDS011;10712;52.944;9.098;2023-04-06T09:18:43;9.38;;;8.45;;
21107;SDS011;10712;52.944;9.098;2023-04-06T09:21:10;12.05;;;7.78;;
21107;SDS011;10712;52.944;9.098;2023-04-06T09:23:36;8.82;;;7.70;;
21107;SDS011;10712;52.944;9.098;2023-04-06T09:26:10;10.23;;;7.15;;
21107;SDS011;10712;52.944;9.098;2023-04-06T09:31:16;12.20;;;7.60;;
21107;SDS011;10712;52.944;9.098;2023-04-06T09:33:50;9.05;;;7.93;;
21107;SDS011;10712;52.944;9.098;2023-04-06T09:36:17;8.82;;;7.50;;
21107;SDS011;10712;52.944;9.098;2023-04-06T09:38:54;10.30;;;7.45;;
21107;SDS011;10712;52.944;9.098;2023-04-06T09:41:22;11.93;;;8.13;;
21107;SDS011;10712;52.944;9.098;2023-04-06T09:44:01;8.27;;;7.47;;
21107;SDS011;10712;52.944;9.098;2023-04-06T09:46:35;10.50;;;7.90;;
21107;SDS011;10712;52.944;9.098;2023-04-06T09:49:03;9.40;;;7.05;;
21107;SDS011;10712;52.944;9.098;2023-04-06T09:51:30;14.90;;;10.25;;
21107;SDS011;10712;52.944;9.098;2023-04-06T09:54:04;16.63;;;12.95;;
21107;SDS011;10712;52.944;9.098;2023-04-06T09:56:34;8.73;;;7.65;;
21107;SDS011;10712;52.944;9.098;2023-04-06T10:05:33;8.73;;;7.28;;
21107;SDS011;10712;52.944;9.098;2023-04-06T10:08:10;11.27;;;7.70;;
21107;SDS011;10712;52.944;9.098;2023-04-06T10:10:38;8.88;;;7.63;;
21107;SDS011;10712;52.944;9.098;2023-04-06T10:13:04;11.15;;;8.73;;
21107;SDS011;10712;52.944;9.098;2023-04-06T10:15:32;9.90;;;8.30;;
21107;SDS011;10712;52.944;9.098;2023-04-06T10:17:59;11.73;;;8.75;;
21107;SDS011;10712;52.944;9.098;2023-04-06T10:20:31;11.25;;;8.23;;
21107;SDS011;10712;52.944;9.098;2023-04-06T10:23:12;10.98;;;8.07;;
21107;SDS011;10712;52.944;9.098;2023-04-06T10:26:15;12.45;;;8.10;;
21107;SDS011;10712;52.944;9.098;2023-04-06T10:28:45;10.70;;;8.93;;
21107;SDS011;10712;52.944;9.098;2023-04-06T10:31:13;11.50;;;8.93;;
21107;SDS011;10712;52.944;9.098;2023-04-06T10:33:39;11.98;;;8.57;;
21107;SDS011;10712;52.944;9.098;2023-04-06T10:36:11;12.18;;;9.10;;
21107;SDS011;10712;52.944;9.098;2023-04-06T10:38:53;12.70;;;9.18;;
21107;SDS011;10712;52.944;9.098;2023-04-06T10:41:24;11.73;;;8.70;;
21107;SDS011;10712;52.944;9.098;2023-04-06T10:44:05;8.93;;;7.63;;
21107;SDS011;10712;52.944;9.098;2023-04-06T10:46:32;11.45;;;8.90;;
21107;SDS011;10712;52.944;9.098;2023-04-06T10:49:09;10.77;;;9.10;;
21107;SDS011;10712;52.944;9.098;2023-04-06T10:51:38;9.73;;;7.75;;
21107;SDS011;10712;52.944;9.098;2023-04-06T10:54:05;10.52;;;7.88;;
21107;SDS011;10712;52.944;9.098;2023-04-06T10:56:32;10.73;;;8.77;;
21107;SDS011;10712;52.944;9.098;2023-04-06T10:59:02;10.18;;;8.32;;
21107;SDS011;10712;52.944;9.098;2023-04-06T11:01:27;14.38;;;9.15;;
21107;SDS011;10712;52.944;9.098;2023-04-06T11:03:54;10.15;;;8.77;;
21107;SDS011;10712;52.944;9.098;2023-04-06T11:06:25;12.10;;;8.68;;
21107;SDS011;10712;52.944;9.098;2023-04-06T11:08:54;18.52;;;9.05;;
21107;SDS011;10712;52.944;9.098;2023-04-06T11:11:22;22.73;;;9.88;;
21107;SDS011;10712;52.944;9.098;2023-04-06T11:13:52;12.27;;;8.60;;
21107;SDS011;10712;52.944;9.098;2023-04-06T11:16:26;9.50;;;8.15;;
21107;SDS011;10712;52.944;9.098;2023-04-06T11:18:57;10.20;;;8.60;;
21107;SDS011;10712;52.944;9.098;2023-04-06T11:21:32;11.40;;;8.85;;
21107;SDS011;10712;52.944;9.098;2023-04-06T11:24:10;11.50;;;9.52;;
21107;SDS011;10712;52.944;9.098;2023-04-06T11:31:51;12.02;;;8.50;;
21107;SDS011;10712;52.944;9.098;2023-04-06T11:34:19;9.73;;;8.13;;
21107;SDS011;10712;52.944;9.098;2023-04-06T11:36:54;9.23;;;7.38;;
21107;SDS011;10712;52.944;9.098;2023-04-06T11:39:25;9.68;;;7.65;;
21107;SDS011;10712;52.944;9.098;2023-04-06T11:41:53;12.77;;;8.85;;
21107;SDS011;10712;52.944;9.098;2023-04-06T11:47:11;10.90;;;8.60;;
21107;SDS011;10712;52.944;9.098;2023-04-06T11:49:44;12.23;;;8.95;;
21107;SDS011;10712;52.944;9.098;2023-04-06T11:52:21;10.68;;;8.90;;
21107;SDS011;10712;52.944;9.098;2023-04-06T11:54:50;14.32;;;9.43;;
21107;SDS011;10712;52.944;9.098;2023-04-06T11:57:18;12.43;;;8.68;;
21107;SDS011;10712;52.944;9.098;2023-04-06T11:59:49;11.53;;;8.43;;
21107;SDS011;10712;52.944;9.098;2023-04-06T12:02:15;9.40;;;7.55;;
21107;SDS011;10712;52.944;9.098;2023-04-06T12:04:42;21.25;;;14.23;;
21107;SDS011;10712;52.944;9.098;2023-04-06T12:07:09;11.98;;;10.32;;
21107;SDS011;10712;52.944;9.098;2023-04-06T12:09:35;12.25;;;9.15;;
21107;SDS011;10712;52.944;9.098;2023-04-06T12:12:02;13.50;;;8.43;;
21107;SDS011;10712;52.944;9.098;2023-04-06T12:14:29;12.48;;;8.90;;
21107;SDS011;10712;52.944;9.098;2023-04-06T12:16:58;12.52;;;8.52;;
21107;SDS011;10712;52.944;9.098;2023-04-06T12:19:24;11.00;;;8.20;;
21107;SDS011;10712;52.944;9.098;2023-04-06T12:21:51;14.20;;;9.55;;
21107;SDS011;10712;52.944;9.098;2023-04-06T12:24:19;9.80;;;8.75;;
21107;SDS011;10712;52.944;9.098;2023-04-06T12:26:45;13.80;;;9.85;;
21107;SDS011;10712;52.944;9.098;2023-04-06T12:29:11;10.27;;;8.38;;
21107;SDS011;10712;52.944;9.098;2023-04-06T12:31:38;12.93;;;10.15;;
21107;SDS011;10712;52.944;9.098;2023-04-06T12:34:05;13.77;;;8.90;;
21107;SDS011;10712;52.944;9.098;2023-04-06T12:36:32;9.20;;;8.20;;
21107;SDS011;10712;52.944;9.098;2023-04-06T12:38:58;12.23;;;8.73;;
21107;SDS011;10712;52.944;9.098;2023-04-06T12:41:28;15.52;;;11.77;;
21107;SDS011;10712;52.944;9.098;2023-04-06T12:43:54;15.35;;;10.00;;
21107;SDS011;10712;52.944;9.098;2023-04-06T12:46:21;13.30;;;9.85;;
21107;SDS011;10712;52.944;9.098;2023-04-06T12:48:48;12.80;;;10.13;;
21107;SDS011;10712;52.944;9.098;2023-04-06T12:51:14;23.65;;;17.55;;
21107;SDS011;10712;52.944;9.098;2023-04-06T12:53:40;15.55;;;11.23;;
21107;SDS011;10712;52.944;9.098;2023-04-06T12:56:13;14.05;;;10.38;;
21107;SDS011;10712;52.944;9.098;2023-04-06T12:58:41;12.25;;;9.50;;
21107;SDS011;10712;52.944;9.098;2023-04-06T13:01:07;12.77;;;9.23;;
21107;SDS011;10712;52.944;9.098;2023-04-06T13:03:33;13.85;;;10.35;;
21107;SDS011;10712;52.944;9.098;2023-04-06T13:06:00;12.18;;;9.95;;
21107;SDS011;10712;52.944;9.098;2023-04-06T13:08:26;13.02;;;9.88;;
21107;SDS011;10712;52.944;9.098;2023-04-06T13:10:52;10.07;;;9.02;;
21107;SDS011;10712;52.944;9.098;2023-04-06T13:13:26;14.07;;;10.73;;
21107;SDS011;10712;52.944;9.098;2023-04-06T13:15:54;13.95;;;9.93;;
21107;SDS011;10712;52.944;9.098;2023-04-06T13:18:28;10.90;;;9.27;;
21107;SDS011;10712;52.944;9.098;2023-04-06T13:20:56;11.43;;;9.80;;
21107;SDS011;10712;52.944;9.098;2023-04-06T13:23:22;11.00;;;8.73;;
21107;SDS011;10712;52.944;9.098;2023-04-06T13:25:56;11.45;;;9.35;;
21107;SDS011;10712;52.944;9.098;2023-04-06T13:28:28;11.85;;;9.85;;
21107;SDS011;10712;52.944;9.098;2023-04-06T13:30:55;12.07;;;9.13;;
21107;SDS011;10712;52.944;9.098;2023-04-06T13:33:23;11.65;;;9.98;;
21107;SDS011;10712;52.944;9.098;2023-04-06T13:35:49;12.20;;;9.75;;
21107;SDS011;10712;52.944;9.098;2023-04-06T13:38:15;11.32;;;9.40;;
21107;SDS011;10712;52.944;9.098;2023-04-06T13:40:41;11.82;;;9.40;;
21107;SDS011;10712;52.944;9.098;2023-04-06T13:43:08;11.98;;;8.35;;
21107;SDS011;10712;52.944;9.098;2023-04-06T13:45:33;13.35;;;9.45;;
21107;SDS011;10712;52.944;9.098;2023-04-06T13:47:59;11.15;;;7.90;;
21107;SDS011;10712;52.944;9.098;2023-04-06T13:50:25;9.57;;;8.15;;
21107;SDS011;10712;52.944;9.098;2023-04-06T13:52:52;10.95;;;8.80;;
21107;SDS011;10712;52.944;9.098;2023-04-06T13:55:18;16.23;;;10.20;;
21107;SDS011;10712;52.944;9.098;2023-04-06T13:57:44;12.93;;;9.65;;
21107;SDS011;10712;52.944;9.098;2023-04-06T14:00:10;12.18;;;10.07;;
21107;SDS011;10712;52.944;9.098;2023-04-06T14:02:38;12.43;;;7.82;;
21107;SDS011;10712;52.944;9.098;2023-04-06T14:05:04;13.15;;;8.43;;
21107;SDS011;10712;52.944;9.098;2023-04-06T14:07:31;11.43;;;8.45;;
21107;SDS011;10712;52.944;9.098;2023-04-06T14:09:56;12.02;;;9.43;;
21107;SDS011;10712;52.944;9.098;2023-04-06T14:12:22;14.70;;;9.77;;
21107;SDS011;10712;52.944;9.098;2023-04-06T14:14:48;15.23;;;9.02;;
21107;SDS011;10712;52.944;9.098;2023-04-06T14:17:15;10.18;;;8.55;;
21107;SDS011;10712;52.944;9.098;2023-04-06T14:19:40;11.68;;;7.88;;
21107;SDS011;10712;52.944;9.098;2023-04-06T14:22:06;12.50;;;9.50;;
21107;SDS011;10712;52.944;9.098;2023-04-06T14:24:33;17.93;;;8.30;;
21107;SDS011;10712;52.944;9.098;2023-04-06T14:27:00;17.13;;;8.30;;
21107;SDS011;10712;52.944;9.098;2023-04-06T14:29:27;10.95;;;8.73;;
21107;SDS011;10712;52.944;9.098;2023-04-06T14:31:53;10.70;;;8.98;;
21107;SDS011;10712;52.944;9.098;2023-04-06T14:34:25;13.30;;;8.00;;
21107;SDS011;10712;52.944;9.098;2023-04-06T14:36:52;11.30;;;8.02;;
21107;SDS011;10712;52.944;9.098;2023-04-06T14:39:18;12.57;;;9.50;;
21107;SDS011;10712;52.944;9.098;2023-04-06T14:41:44;11.80;;;7.72;;
21107;SDS011;10712;52.944;9.098;2023-04-06T14:44:10;11.77;;;9.63;;
21107;SDS011;10712;52.944;9.098;2023-04-06T14:46:37;11.20;;;9.07;;
21107;SDS011;10712;52.944;9.098;2023-04-06T14:49:03;13.73;;;8.93;;
21107;SDS011;10712;52.944;9.098;2023-04-06T14:51:29;13.52;;;9.73;;
21107;SDS011;10712;52.944;9.098;2023-04-06T14:53:55;15.65;;;10.60;;
21107;SDS011;10712;52.944;9.098;2023-04-06T14:56:22;11.80;;;10.38;;
21107;SDS011;10712;52.944;9.098;2023-04-06T14:58:50;12.98;;;10.32;;
21107;SDS011;10712;52.944;9.098;2023-04-06T15:01:17;10.43;;;9.05;;
21107;SDS011;10712;52.944;9.098;2023-04-06T15:03:44;13.63;;;9.23;;
21107;SDS011;10712;52.944;9.098;2023-04-06T15:06:13;12.85;;;8.80;;